sensor_id;sensor_type;location;lat;lon;timestamp;P1;durP1;ratioP1;P2;durP2;ratioP2
4452;SDS011;2239;48.152;11.584;2023-06-10T00:01:47;5.27;;;2.30;;
4452;SDS011;2239;48.152;11.584;2023-06-10T00:04:16;3.00;;;2.10;;
4452;SDS011;2239;48.152;11.584;2023-06-10T00:06:43;4.73;;;2.37;;
4452;SDS011;2239;48.152;11.584;2023-06-10T00:09:09;5.03;;;1.90;;
4452;SDS011;2239;48.152;11.584;2023-06-10T00:11:35;5.50;;;2.20;;
4452;SDS011;2239;48.152;11.584;2023-06-10T00:14:01;5.90;;;2.63;;
4452;SDS011;2239;48.152;11.584;2023-06-10T00:16:27;5.93;;;2.60;;
4452;SDS011;2239;48.152;11.584;2023-06-10T00:18:53;3.10;;;2.00;;
4452;SDS011;2239;48.152;11.584;2023-06-10T00:21:25;2.97;;;1.80;;
4452;SDS011;2239;48.152;11.584;2023-06-10T00:23:55;4.20;;;2.20;;
4452;SDS011;2239;48.152;11.584;2023-06-10T00:26:24;3.90;;;2.47;;
4452;SDS011;2239;48.152;11.584;2023-06-10T00:28:51;4.17;;;2.10;;
4452;SDS011;2239;48.152;11.584;2023-06-10T00:31:17;5.33;;;2.43;;
4452;SDS011;2239;48.152;11.584;2023-06-10T00:33:43;4.90;;;2.20;;
4452;SDS011;2239;48.152;11.584;2023-06-10T00:36:08;5.13;;;2.50;;
4452;SDS011;2239;48.152;11.584;2023-06-10T00:38:34;4.10;;;2.67;;
4452;SDS011;2239;48.152;11.584;2023-06-10T00:40:59;5.80;;;2.30;;
4452;SDS011;2239;48.152;11.584;2023-06-10T00:43:25;3.93;;;2.30;;
4452;SDS011;2239;48.152;11.584;2023-06-10T00:45:51;5.40;;;2.43;;
4452;SDS011;2239;48.152;11.584;2023-06-10T00:48:17;4.00;;;2.33;;
4452;SDS011;2239;48.152;11.584;2023-06-10T00:50:43;3.90;;;2.30;;
4452;SDS011;2239;48.152;11.584;2023-06-10T00:53:11;3.17;;;2.10;;
4452;SDS011;2239;48.152;11.584;2023-06-10T00:55:37;4.60;;;2.47;;
4452;SDS011;2239;48.152;11.584;2023-06-10T00:58:03;4.80;;;2.40;;
4452;SDS011;2239;48.152;11.584;2023-06-10T01:00:29;4.10;;;2.20;;
4452;SDS011;2239;48.152;11.584;2023-06-10T01:02:55;4.67;;;2.80;;
4452;SDS011;2239;48.152;11.584;2023-06-10T01:05:20;5.00;;;2.43;;
4452;SDS011;2239;48.152;11.584;2023-06-10T01:07:51;7.07;;;2.80;;
4452;SDS011;2239;48.152;11.584;2023-06-10T01:10:42;5.87;;;2.77;;
4452;SDS011;2239;48.152;11.584;2023-06-10T01:13:14;5.13;;;2.67;;
4452;SDS011;2239;48.152;11.584;2023-06-10T01:15:42;3.50;;;2.50;;
4452;SDS011;2239;48.152;11.584;2023-06-10T01:18:08;4.03;;;2.43;;
4452;SDS011;2239;48.152;11.584;2023-06-10T01:20:39;7.80;;;2.83;;
4452;SDS011;2239;48.152;11.584;2023-06-10T01:23:06;4.70;;;2.70;;
4452;SDS011;2239;48.152;11.584;2023-06-10T01:25:32;5.70;;;2.43;;
4452;SDS011;2239;48.152;11.584;2023-06-10T01:28:10;5.17;;;2.87;;
4452;SDS011;2239;48.152;11.584;2023-06-10T01:33:45;5.07;;;2.53;;
4452;SDS011;2239;48.152;11.584;2023-06-10T01:36:13;6.83;;;2.77;;
4452;SDS011;2239;48.152;11.584;2023-06-10T01:38:44;5.40;;;2.50;;
4452;SDS011;2239;48.152;11.584;2023-06-10T01:41:12;5.27;;;2.70;;
4452;SDS011;2239;48.152;11.584;2023-06-10T01:43:39;6.20;;;2.63;;
4452;SDS011;2239;48.152;11.584;2023-06-10T01:46:05;4.93;;;2.20;;
4452;SDS011;2239;48.152;11.584;2023-06-10T01:48:32;6.83;;;2.87;;
4452;SDS011;2239;48.152;11.584;2023-06-10T01:50:57;3.00;;;1.83;;
4452;SDS011;2239;48.152;11.584;2023-06-10T01:53:23;5.00;;;2.20;;
4452;SDS011;2239;48.152;11.584;2023-06-10T01:55:49;4.20;;;1.83;;
4452;SDS011;2239;48.152;11.584;2023-06-10T01:58:14;6.23;;;3.00;;
4452;SDS011;2239;48.152;11.584;2023-06-10T02:00:40;5.63;;;2.60;;
4452;SDS011;2239;48.152;11.584;2023-06-10T02:03:05;7.30;;;2.93;;
4452;SDS011;2239;48.152;11.584;2023-06-10T02:05:31;4.60;;;2.57;;
4452;SDS011;2239;48.152;11.584;2023-06-10T02:07:57;6.80;;;2.77;;
4452;SDS011;2239;48.152;11.584;2023-06-10T02:10:22;5.47;;;2.60;;
4452;SDS011;2239;48.152;11.584;2023-06-10T02:12:48;4.90;;;2.57;;
4452;SDS011;2239;48.152;11.584;2023-06-10T02:15:13;6.87;;;2.93;;
4452;SDS011;2239;48.152;11.584;2023-06-10T02:17:39;10.33;;;2.73;;
4452;SDS011;2239;48.152;11.584;2023-06-10T02:20:05;2.80;;;1.97;;
4452;SDS011;2239;48.152;11.584;2023-06-10T02:22:32;4.77;;;1.93;;
4452;SDS011;2239;48.152;11.584;2023-06-10T02:24:58;3.93;;;2.57;;
4452;SDS011;2239;48.152;11.584;2023-06-10T02:27:23;4.93;;;2.53;;
4452;SDS011;2239;48.152;11.584;2023-06-10T02:29:49;4.80;;;2.80;;
4452;SDS011;2239;48.152;11.584;2023-06-10T02:32:16;4.73;;;2.40;;
4452;SDS011;2239;48.152;11.584;2023-06-10T02:34:42;5.67;;;2.20;;
4452;SDS011;2239;48.152;11.584;2023-06-10T02:37:08;3.80;;;2.30;;
4452;SDS011;2239;48.152;11.584;2023-06-10T02:39:34;3.93;;;2.23;;
4452;SDS011;2239;48.152;11.584;2023-06-10T02:42:00;5.30;;;2.60;;
4452;SDS011;2239;48.152;11.584;2023-06-10T02:44:25;4.30;;;1.80;;
4452;SDS011;2239;48.152;11.584;2023-06-10T02:46:51;4.37;;;2.70;;
4452;SDS011;2239;48.152;11.584;2023-06-10T02:49:16;7.27;;;3.53;;
4452;SDS011;2239;48.152;11.584;2023-06-10T02:51:42;4.93;;;2.70;;
4452;SDS011;2239;48.152;11.584;2023-06-10T02:54:08;7.90;;;3.80;;
4452;SDS011;2239;48.152;11.584;2023-06-10T02:56:33;7.13;;;3.03;;
4452;SDS011;2239;48.152;11.584;2023-06-10T02:58:59;7.17;;;2.67;;
4452;SDS011;2239;48.152;11.584;2023-06-10T03:01:25;6.07;;;2.67;;
4452;SDS011;2239;48.152;11.584;2023-06-10T03:03:51;5.53;;;3.30;;
4452;SDS011;2239;48.152;11.584;2023-06-10T03:06:17;5.47;;;2.50;;
4452;SDS011;2239;48.152;11.584;2023-06-10T03:08:43;4.87;;;2.20;;
4452;SDS011;2239;48.152;11.584;2023-06-10T03:11:08;8.90;;;3.00;;
4452;SDS011;2239;48.152;11.584;2023-06-10T03:13:35;4.13;;;2.40;;
4452;SDS011;2239;48.152;11.584;2023-06-10T03:16:00;4.77;;;3.00;;
4452;SDS011;2239;48.152;11.584;2023-06-10T03:18:28;4.00;;;2.40;;
4452;SDS011;2239;48.152;11.584;2023-06-10T03:20:54;5.33;;;2.67;;
4452;SDS011;2239;48.152;11.584;2023-06-10T03:23:20;6.43;;;2.43;;
4452;SDS011;2239;48.152;11.584;2023-06-10T03:25:46;4.20;;;2.10;;
4452;SDS011;2239;48.152;11.584;2023-06-10T03:28:12;5.97;;;3.10;;
4452;SDS011;2239;48.152;11.584;2023-06-10T03:30:37;3.53;;;2.30;;
4452;SDS011;2239;48.152;11.584;2023-06-10T03:33:03;5.87;;;2.40;;
4452;SDS011;2239;48.152;11.584;2023-06-10T03:35:29;6.77;;;2.80;;
4452;SDS011;2239;48.152;11.584;2023-06-10T03:37:54;9.80;;;2.60;;
4452;SDS011;2239;48.152;11.584;2023-06-10T03:40:20;6.30;;;3.10;;
4452;SDS011;2239;48.152;11.584;2023-06-10T03:42:49;6.33;;;3.03;;
4452;SDS011;2239;48.152;11.584;2023-06-10T03:45:14;4.43;;;2.23;;
4452;SDS011;2239;48.152;11.584;2023-06-10T03:47:40;5.93;;;2.83;;
4452;SDS011;2239;48.152;11.584;2023-06-10T03:50:06;5.57;;;2.53;;
4452;SDS011;2239;48.152;11.584;2023-06-10T03:52:33;5.67;;;2.33;;
4452;SDS011;2239;48.152;11.584;2023-06-10T03:54:59;6.93;;;3.00;;
4452;SDS011;2239;48.152;11.584;2023-06-10T03:57:25;6.63;;;3.03;;
4452;SDS011;2239;48.152;11.584;2023-06-10T03:59:50;6.50;;;2.73;;
4452;SDS011;2239;48.152;11.584;2023-06-10T04:02:16;4.93;;;2.30;;
4452;SDS011;2239;48.152;11.584;2023-06-10T04:04:42;8.27;;;2.60;;
4452;SDS011;2239;48.152;11.584;2023-06-10T04:07:08;6.30;;;2.90;;
4452;SDS011;2239;48.152;11.584;2023-06-10T04:09:34;7.57;;;3.87;;
4452;SDS011;2239;48.152;11.584;2023-06-10T04:12:03;3.23;;;2.37;;
4452;SDS011;2239;48.152;11.584;2023-06-10T04:14:33;5.60;;;2.43;;
4452;SDS011;2239;48.152;11.584;2023-06-10T04:17:00;4.70;;;2.77;;
4452;SDS011;2239;48.152;11.584;2023-06-10T04:19:26;7.90;;;2.70;;
4452;SDS011;2239;48.152;11.584;2023-06-10T04:21:53;5.27;;;2.60;;
4452;SDS011;2239;48.152;11.584;2023-06-10T04:24:18;7.30;;;3.10;;
4452;SDS011;2239;48.152;11.584;2023-06-10T04:26:44;6.60;;;3.80;;
4452;SDS011;2239;48.152;11.584;2023-06-10T04:29:10;8.50;;;3.73;;
4452;SDS011;2239;48.152;11.584;2023-06-10T04:31:35;8.03;;;3.80;;
4452;SDS011;2239;48.152;11.584;2023-06-10T04:34:01;4.43;;;2.30;;
4452;SDS011;2239;48.152;11.584;2023-06-10T04:36:26;9.50;;;3.67;;
4452;SDS011;2239;48.152;11.584;2023-06-10T04:38:54;6.30;;;3.13;;
4452;SDS011;2239;48.152;11.584;2023-06-10T04:41:19;9.70;;;3.60;;
4452;SDS011;2239;48.152;11.584;2023-06-10T04:43:45;7.50;;;3.83;;
4452;SDS011;2239;48.152;11.584;2023-06-10T04:46:11;7.23;;;3.43;;
4452;SDS011;2239;48.152;11.584;2023-06-10T04:48:38;5.07;;;2.67;;
4452;SDS011;2239;48.152;11.584;2023-06-10T04:51:03;7.10;;;3.13;;
4452;SDS011;2239;48.152;11.584;2023-06-10T04:53:30;7.50;;;3.13;;
4452;SDS011;2239;48.152;11.584;2023-06-10T04:55:56;7.60;;;3.37;;
4452;SDS011;2239;48.152;11.584;2023-06-10T04:58:22;5.40;;;2.80;;
4452;SDS011;2239;48.152;11.584;2023-06-10T05:00:48;6.20;;;2.87;;
4452;SDS011;2239;48.152;11.584;2023-06-10T05:03:14;5.57;;;2.90;;
4452;SDS011;2239;48.152;11.584;2023-06-10T05:05:40;6.13;;;3.10;;
4452;SDS011;2239;48.152;11.584;2023-06-10T05:08:05;6.23;;;3.13;;
4452;SDS011;2239;48.152;11.584;2023-06-10T05:10:31;8.20;;;3.23;;
4452;SDS011;2239;48.152;11.584;2023-06-10T05:12:57;6.97;;;3.33;;
4452;SDS011;2239;48.152;11.584;2023-06-10T05:15:23;5.70;;;2.90;;
4452;SDS011;2239;48.152;11.584;2023-06-10T05:17:49;5.43;;;3.20;;
4452;SDS011;2239;48.152;11.584;2023-06-10T05:20:15;8.17;;;3.20;;
4452;SDS011;2239;48.152;11.584;2023-06-10T05:22:40;6.77;;;3.20;;
4452;SDS011;2239;48.152;11.584;2023-06-10T05:25:06;5.13;;;2.97;;
4452;SDS011;2239;48.152;11.584;2023-06-10T05:27:32;7.70;;;3.87;;
4452;SDS011;2239;48.152;11.584;2023-06-10T05:29:58;5.83;;;3.43;;
4452;SDS011;2239;48.152;11.584;2023-06-10T05:32:24;13.90;;;3.67;;
4452;SDS011;2239;48.152;11.584;2023-06-10T05:34:50;9.70;;;4.10;;
4452;SDS011;2239;48.152;11.584;2023-06-10T05:37:16;6.10;;;2.77;;
4452;SDS011;2239;48.152;11.584;2023-06-10T05:39:41;5.20;;;3.10;;
4452;SDS011;2239;48.152;11.584;2023-06-10T05:42:07;6.60;;;3.20;;
4452;SDS011;2239;48.152;11.584;2023-06-10T05:44:33;5.73;;;3.43;;
4452;SDS011;2239;48.152;11.584;2023-06-10T05:46:59;7.03;;;3.43;;
4452;SDS011;2239;48.152;11.584;2023-06-10T05:49:25;6.70;;;3.40;;
4452;SDS011;2239;48.152;11.584;2023-06-10T05:51:50;7.50;;;3.23;;
4452;SDS011;2239;48.152;11.584;2023-06-10T05:54:17;7.00;;;4.00;;
4452;SDS011;2239;48.152;11.584;2023-06-10T05:56:43;8.90;;;3.60;;
4452;SDS011;2239;48.152;11.584;2023-06-10T05:59:09;6.10;;;3.20;;
4452;SDS011;2239;48.152;11.584;2023-06-10T06:01:35;6.60;;;3.30;;
4452;SDS011;2239;48.152;11.584;2023-06-10T06:04:00;7.63;;;3.70;;
4452;SDS011;2239;48.152;11.584;2023-06-10T06:06:26;7.00;;;3.50;;
4452;SDS011;2239;48.152;11.584;2023-06-10T06:08:51;10.13;;;3.60;;
4452;SDS011;2239;48.152;11.584;2023-06-10T06:11:17;6.50;;;3.83;;
4452;SDS011;2239;48.152;11.584;2023-06-10T06:13:42;7.13;;;3.67;;
4452;SDS011;2239;48.152;11.584;2023-06-10T06:16:08;7.93;;;3.70;;
4452;SDS011;2239;48.152;11.584;2023-06-10T06:18:33;6.00;;;3.43;;
4452;SDS011;2239;48.152;11.584;2023-06-10T06:20:59;7.03;;;3.40;;
4452;SDS011;2239;48.152;11.584;2023-06-10T06:23:25;10.10;;;3.93;;
4452;SDS011;2239;48.152;11.584;2023-06-10T06:25:50;6.47;;;3.13;;
4452;SDS011;2239;48.152;11.584;2023-06-10T06:28:16;9.90;;;3.60;;
4452;SDS011;2239;48.152;11.584;2023-06-10T06:30:43;5.80;;;3.20;;
4452;SDS011;2239;48.152;11.584;2023-06-10T06:33:09;6.77;;;3.30;;
4452;SDS011;2239;48.152;11.584;2023-06-10T06:35:35;6.77;;;3.70;;
4452;SDS011;2239;48.152;11.584;2023-06-10T06:38:00;8.73;;;3.73;;
4452;SDS011;2239;48.152;11.584;2023-06-10T06:40:26;7.37;;;3.80;;
4452;SDS011;2239;48.152;11.584;2023-06-10T06:42:51;6.77;;;2.87;;
4452;SDS011;2239;48.152;11.584;2023-06-10T06:45:17;7.40;;;3.57;;
4452;SDS011;2239;48.152;11.584;2023-06-10T06:47:44;7.67;;;3.40;;
4452;SDS011;2239;48.152;11.584;2023-06-10T06:50:09;5.43;;;3.10;;
4452;SDS011;2239;48.152;11.584;2023-06-10T06:52:35;5.27;;;3.43;;
4452;SDS011;2239;48.152;11.584;2023-06-10T06:55:00;7.03;;;3.77;;
4452;SDS011;2239;48.152;11.584;2023-06-10T06:57:26;9.70;;;4.27;;
4452;SDS011;2239;48.152;11.584;2023-06-10T06:59:51;8.70;;;3.47;;
4452;SDS011;2239;48.152;11.584;2023-06-10T07:02:17;5.73;;;3.40;;
4452;SDS011;2239;48.152;11.584;2023-06-10T07:04:44;6.40;;;3.17;;
4452;SDS011;2239;48.152;11.584;2023-06-10T07:07:10;8.77;;;3.70;;
4452;SDS011;2239;48.152;11.584;2023-06-10T07:09:37;6.80;;;3.40;;
4452;SDS011;2239;48.152;11.584;2023-06-10T07:12:03;4.80;;;2.57;;
4452;SDS011;2239;48.152;11.584;2023-06-10T07:14:30;5.23;;;2.50;;
4452;SDS011;2239;48.152;11.584;2023-06-10T07:16:56;6.43;;;2.87;;
4452;SDS011;2239;48.152;11.584;2023-06-10T07:19:21;9.20;;;3.70;;
4452;SDS011;2239;48.152;11.584;2023-06-10T07:21:47;6.90;;;3.37;;
4452;SDS011;2239;48.152;11.584;2023-06-10T07:24:12;5.87;;;2.90;;
4452;SDS011;2239;48.152;11.584;2023-06-10T07:26:38;5.87;;;3.30;;
4452;SDS011;2239;48.152;11.584;2023-06-10T07:29:04;7.90;;;4.10;;
4452;SDS011;2239;48.152;11.584;2023-06-10T07:31:29;8.43;;;3.43;;
4452;SDS011;2239;48.152;11.584;2023-06-10T07:33:55;6.60;;;2.93;;
4452;SDS011;2239;48.152;11.584;2023-06-10T07:36:20;8.20;;;3.77;;
4452;SDS011;2239;48.152;11.584;2023-06-10T07:38:46;6.33;;;2.70;;
4452;SDS011;2239;48.152;11.584;2023-06-10T07:41:11;4.43;;;2.60;;
4452;SDS011;2239;48.152;11.584;2023-06-10T07:43:37;6.47;;;3.40;;
4452;SDS011;2239;48.152;11.584;2023-06-10T07:46:03;6.87;;;2.80;;
4452;SDS011;2239;48.152;11.584;2023-06-10T07:48:30;6.10;;;2.90;;
4452;SDS011;2239;48.152;11.584;2023-06-10T07:50:56;5.70;;;2.70;;
4452;SDS011;2239;48.152;11.584;2023-06-10T07:53:21;4.77;;;2.63;;
4452;SDS011;2239;48.152;11.584;2023-06-10T07:55:47;9.50;;;3.30;;
4452;SDS011;2239;48.152;11.584;2023-06-10T07:58:12;6.30;;;2.67;;
4452;SDS011;2239;48.152;11.584;2023-06-10T08:00:38;5.83;;;2.93;;
4452;SDS011;2239;48.152;11.584;2023-06-10T08:03:03;5.60;;;2.80;;
4452;SDS011;2239;48.152;11.584;2023-06-10T08:05:29;6.67;;;2.97;;
4452;SDS011;2239;48.152;11.584;2023-06-10T08:07:55;6.50;;;3.07;;
4452;SDS011;2239;48.152;11.584;2023-06-10T08:10:21;6.40;;;3.27;;
4452;SDS011;2239;48.152;11.584;2023-06-10T08:12:46;5.47;;;3.00;;
4452;SDS011;2239;48.152;11.584;2023-06-10T08:15:12;5.20;;;2.80;;
4452;SDS011;2239;48.152;11.584;2023-06-10T08:17:37;5.50;;;3.00;;
4452;SDS011;2239;48.152;11.584;2023-06-10T08:20:04;6.10;;;3.33;;
4452;SDS011;2239;48.152;11.584;2023-06-10T08:22:30;9.03;;;2.50;;
4452;SDS011;2239;48.152;11.584;2023-06-10T08:24:56;4.80;;;2.93;;
4452;SDS011;2239;48.152;11.584;2023-06-10T08:27:22;6.17;;;3.23;;
4452;SDS011;2239;48.152;11.584;2023-06-10T08:29:47;4.40;;;2.80;;
4452;SDS011;2239;48.152;11.584;2023-06-10T08:32:13;7.43;;;3.53;;
4452;SDS011;2239;48.152;11.584;2023-06-10T08:34:38;5.47;;;2.70;;
4452;SDS011;2239;48.152;11.584;2023-06-10T08:37:04;4.30;;;2.53;;
4452;SDS011;2239;48.152;11.584;2023-06-10T08:39:30;5.60;;;2.50;;
4452;SDS011;2239;48.152;11.584;2023-06-10T08:44:36;4.13;;;2.37;;
4452;SDS011;2239;48.152;11.584;2023-06-10T08:47:15;4.90;;;2.77;;
4452;SDS011;2239;48.152;11.584;2023-06-10T08:49:45;5.60;;;2.30;;
4452;SDS011;2239;48.152;11.584;2023-06-10T08:52:14;4.87;;;2.80;;
4452;SDS011;2239;48.152;11.584;2023-06-10T08:54:48;4.80;;;2.47;;
4452;SDS011;2239;48.152;11.584;2023-06-10T08:57:21;5.20;;;2.60;;
4452;SDS011;2239;48.152;11.584;2023-06-10T08:59:48;6.67;;;2.87;;
4452;SDS011;2239;48.152;11.584;2023-06-10T09:02:14;5.40;;;2.60;;
4452;SDS011;2239;48.152;11.584;2023-06-10T09:04:43;3.93;;;2.03;;
4452;SDS011;2239;48.152;11.584;2023-06-10T09:07:10;5.37;;;2.33;;
4452;SDS011;2239;48.152;11.584;2023-06-10T09:09:36;4.63;;;2.40;;
4452;SDS011;2239;48.152;11.584;2023-06-10T09:12:02;5.03;;;2.70;;
4452;SDS011;2239;48.152;11.584;2023-06-10T09:14:28;5.57;;;3.10;;
4452;SDS011;2239;48.152;11.584;2023-06-10T09:16:54;5.77;;;2.37;;
4452;SDS011;2239;48.152;11.584;2023-06-10T09:19:22;7.00;;;2.47;;
4452;SDS011;2239;48.152;11.584;2023-06-10T09:21:50;3.97;;;2.30;;
4452;SDS011;2239;48.152;11.584;2023-06-10T09:24:16;5.60;;;2.80;;
4452;SDS011;2239;48.152;11.584;2023-06-10T09:26:42;3.80;;;2.00;;
4452;SDS011;2239;48.152;11.584;2023-06-10T09:29:09;7.57;;;3.03;;
4452;SDS011;2239;48.152;11.584;2023-06-10T09:31:37;5.10;;;2.50;;
4452;SDS011;2239;48.152;11.584;2023-06-10T09:34:13;4.60;;;2.17;;
4452;SDS011;2239;48.152;11.584;2023-06-10T09:36:42;4.17;;;2.13;;
4452;SDS011;2239;48.152;11.584;2023-06-10T09:39:15;4.00;;;2.50;;
4452;SDS011;2239;48.152;11.584;2023-06-10T09:41:42;3.37;;;2.07;;
4452;SDS011;2239;48.152;11.584;2023-06-10T09:44:15;4.67;;;2.50;;
4452;SDS011;2239;48.152;11.584;2023-06-10T09:46:42;3.63;;;2.20;;
4452;SDS011;2239;48.152;11.584;2023-06-10T09:49:10;4.00;;;2.00;;
4452;SDS011;2239;48.152;11.584;2023-06-10T09:51:35;2.73;;;1.70;;
4452;SDS011;2239;48.152;11.584;2023-06-10T09:54:04;3.73;;;2.40;;
4452;SDS011;2239;48.152;11.584;2023-06-10T09:56:36;3.87;;;1.67;;
4452;SDS011;2239;48.152;11.584;2023-06-10T09:59:02;5.20;;;2.57;;
4452;SDS011;2239;48.152;11.584;2023-06-10T10:01:31;4.20;;;2.13;;
4452;SDS011;2239;48.152;11.584;2023-06-10T10:03:58;3.37;;;2.03;;
4452;SDS011;2239;48.152;11.584;2023-06-10T10:06:24;4.10;;;2.10;;
4452;SDS011;2239;48.152;11.584;2023-06-10T10:08:50;3.10;;;1.90;;
4452;SDS011;2239;48.152;11.584;2023-06-10T10:11:17;3.13;;;2.10;;
4452;SDS011;2239;48.152;11.584;2023-06-10T10:13:45;3.10;;;1.80;;
4452;SDS011;2239;48.152;11.584;2023-06-10T10:16:20;3.03;;;2.00;;
4452;SDS011;2239;48.152;11.584;2023-06-10T10:18:55;3.83;;;2.23;;
4452;SDS011;2239;48.152;11.584;2023-06-10T10:21:25;2.87;;;1.87;;
4452;SDS011;2239;48.152;11.584;2023-06-10T10:26:23;2.10;;;1.80;;
4452;SDS011;2239;48.152;11.584;2023-06-10T10:28:53;2.77;;;2.20;;
4452;SDS011;2239;48.152;11.584;2023-06-10T10:31:42;3.57;;;2.00;;
4452;SDS011;2239;48.152;11.584;2023-06-10T10:34:18;3.53;;;2.00;;
4452;SDS011;2239;48.152;11.584;2023-06-10T10:37:11;2.60;;;1.80;;
4452;SDS011;2239;48.152;11.584;2023-06-10T10:39:37;3.37;;;2.10;;
4452;SDS011;2239;48.152;11.584;2023-06-10T10:42:03;5.13;;;2.33;;
4452;SDS011;2239;48.152;11.584;2023-06-10T10:44:30;4.10;;;2.37;;
4452;SDS011;2239;48.152;11.584;2023-06-10T10:46:56;3.97;;;2.10;;
4452;SDS011;2239;48.152;11.584;2023-06-10T10:49:29;2.33;;;1.70;;
4452;SDS011;2239;48.152;11.584;2023-06-10T10:54:29;3.80;;;2.03;;
4452;SDS011;2239;48.152;11.584;2023-06-10T11:02:18;4.40;;;2.10;;
4452;SDS011;2239;48.152;11.584;2023-06-10T11:04:56;2.30;;;1.47;;
4452;SDS011;2239;48.152;11.584;2023-06-10T11:07:22;1.70;;;1.60;;
4452;SDS011;2239;48.152;11.584;2023-06-10T11:15:07;2.47;;;1.87;;
4452;SDS011;2239;48.152;11.584;2023-06-10T11:17:33;5.17;;;2.03;;
4452;SDS011;2239;48.152;11.584;2023-06-10T11:19:58;4.07;;;2.27;;
4452;SDS011;2239;48.152;11.584;2023-06-10T11:22:25;2.40;;;1.90;;
4452;SDS011;2239;48.152;11.584;2023-06-10T11:24:50;4.17;;;1.97;;
4452;SDS011;2239;48.152;11.584;2023-06-10T11:32:31;3.77;;;2.30;;
4452;SDS011;2239;48.152;11.584;2023-06-10T11:34:59;4.47;;;2.10;;
4452;SDS011;2239;48.152;11.584;2023-06-10T11:37:27;3.10;;;2.27;;
4452;SDS011;2239;48.152;11.584;2023-06-10T11:39:56;2.77;;;1.80;;
4452;SDS011;2239;48.152;11.584;2023-06-10T11:42:22;2.80;;;1.83;;
4452;SDS011;2239;48.152;11.584;2023-06-10T11:44:51;3.40;;;1.80;;
4452;SDS011;2239;48.152;11.584;2023-06-10T11:47:18;3.20;;;2.00;;
4452;SDS011;2239;48.152;11.584;2023-06-10T11:49:45;4.57;;;2.20;;
4452;SDS011;2239;48.152;11.584;2023-06-10T11:52:12;3.30;;;1.90;;
4452;SDS011;2239;48.152;11.584;2023-06-10T11:54:38;3.07;;;1.80;;
4452;SDS011;2239;48.152;11.584;2023-06-10T11:57:03;2.53;;;1.40;;
4452;SDS011;2239;48.152;11.584;2023-06-10T11:59:30;2.93;;;1.53;;
4452;SDS011;2239;48.152;11.584;2023-06-10T12:01:55;4.03;;;2.23;;
4452;SDS011;2239;48.152;11.584;2023-06-10T12:04:21;2.37;;;1.70;;
4452;SDS011;2239;48.152;11.584;2023-06-10T12:06:48;4.30;;;1.80;;
4452;SDS011;2239;48.152;11.584;2023-06-10T12:11:44;1.63;;;1.10;;
4452;SDS011;2239;48.152;11.584;2023-06-10T12:14:11;2.13;;;1.50;;
4452;SDS011;2239;48.152;11.584;2023-06-10T12:16:37;1.50;;;1.30;;
4452;SDS011;2239;48.152;11.584;2023-06-10T12:19:03;2.20;;;1.37;;
4452;SDS011;2239;48.152;11.584;2023-06-10T12:21:31;1.97;;;1.33;;
4452;SDS011;2239;48.152;11.584;2023-06-10T12:24:08;3.30;;;1.70;;
4452;SDS011;2239;48.152;11.584;2023-06-10T12:26:35;2.07;;;1.47;;
4452;SDS011;2239;48.152;11.584;2023-06-10T12:29:12;1.40;;;1.13;;
4452;SDS011;2239;48.152;11.584;2023-06-10T12:32:01;2.20;;;1.40;;
4452;SDS011;2239;48.152;11.584;2023-06-10T12:34:37;2.03;;;1.20;;
4452;SDS011;2239;48.152;11.584;2023-06-10T12:37:04;2.87;;;1.27;;
4452;SDS011;2239;48.152;11.584;2023-06-10T12:39:38;1.90;;;1.27;;
4452;SDS011;2239;48.152;11.584;2023-06-10T12:42:04;2.27;;;1.43;;
4452;SDS011;2239;48.152;11.584;2023-06-10T12:44:34;2.33;;;1.37;;
4452;SDS011;2239;48.152;11.584;2023-06-10T12:47:08;1.90;;;1.50;;
4452;SDS011;2239;48.152;11.584;2023-06-10T12:49:37;2.03;;;1.20;;
4452;SDS011;2239;48.152;11.584;2023-06-10T12:52:04;2.93;;;1.30;;
4452;SDS011;2239;48.152;11.584;2023-06-10T12:54:30;3.53;;;1.50;;
4452;SDS011;2239;48.152;11.584;2023-06-10T12:56:56;2.70;;;1.57;;
4452;SDS011;2239;48.152;11.584;2023-06-10T12:59:23;5.07;;;2.30;;
4452;SDS011;2239;48.152;11.584;2023-06-10T13:01:52;2.17;;;1.63;;
4452;SDS011;2239;48.152;11.584;2023-06-10T13:04:18;4.70;;;2.43;;
4452;SDS011;2239;48.152;11.584;2023-06-10T13:06:44;3.00;;;2.00;;
4452;SDS011;2239;48.152;11.584;2023-06-10T13:09:11;2.53;;;1.97;;
4452;SDS011;2239;48.152;11.584;2023-06-10T13:11:37;2.63;;;1.80;;
4452;SDS011;2239;48.152;11.584;2023-06-10T13:14:04;3.00;;;2.10;;
4452;SDS011;2239;48.152;11.584;2023-06-10T13:16:31;2.60;;;1.90;;
4452;SDS011;2239;48.152;11.584;2023-06-10T13:18:57;4.37;;;2.20;;
4452;SDS011;2239;48.152;11.584;2023-06-10T13:21:23;4.13;;;2.17;;
4452;SDS011;2239;48.152;11.584;2023-06-10T13:23:49;3.43;;;2.30;;
4452;SDS011;2239;48.152;11.584;2023-06-10T13:26:15;3.23;;;1.93;;
4452;SDS011;2239;48.152;11.584;2023-06-10T13:28:43;4.27;;;2.27;;
4452;SDS011;2239;48.152;11.584;2023-06-10T13:31:09;4.30;;;2.53;;
4452;SDS011;2239;48.152;11.584;2023-06-10T13:33:35;3.13;;;2.30;;
4452;SDS011;2239;48.152;11.584;2023-06-10T13:36:01;2.20;;;1.80;;
4452;SDS011;2239;48.152;11.584;2023-06-10T13:38:26;4.43;;;2.00;;
4452;SDS011;2239;48.152;11.584;2023-06-10T13:40:52;2.77;;;1.77;;
4452;SDS011;2239;48.152;11.584;2023-06-10T13:43:17;4.40;;;2.20;;
4452;SDS011;2239;48.152;11.584;2023-06-10T13:45:43;4.03;;;2.47;;
4452;SDS011;2239;48.152;11.584;2023-06-10T13:48:09;4.40;;;2.30;;
4452;SDS011;2239;48.152;11.584;2023-06-10T13:50:34;2.67;;;2.03;;
4452;SDS011;2239;48.152;11.584;2023-06-10T13:53:00;2.07;;;1.63;;
4452;SDS011;2239;48.152;11.584;2023-06-10T13:55:25;2.40;;;1.93;;
4452;SDS011;2239;48.152;11.584;2023-06-10T13:57:51;2.87;;;2.00;;
4452;SDS011;2239;48.152;11.584;2023-06-10T14:00:17;2.10;;;1.80;;
4452;SDS011;2239;48.152;11.584;2023-06-10T14:02:42;2.50;;;1.67;;
4452;SDS011;2239;48.152;11.584;2023-06-10T14:05:08;3.60;;;1.90;;
4452;SDS011;2239;48.152;11.584;2023-06-10T14:07:34;3.00;;;1.90;;
4452;SDS011;2239;48.152;11.584;2023-06-10T14:10:00;2.70;;;2.03;;
4452;SDS011;2239;48.152;11.584;2023-06-10T14:12:25;3.80;;;2.13;;
4452;SDS011;2239;48.152;11.584;2023-06-10T14:14:51;3.40;;;1.80;;
4452;SDS011;2239;48.152;11.584;2023-06-10T14:17:16;2.60;;;1.60;;
4452;SDS011;2239;48.152;11.584;2023-06-10T14:19:43;4.57;;;2.30;;
4452;SDS011;2239;48.152;11.584;2023-06-10T14:22:09;3.77;;;1.77;;
4452;SDS011;2239;48.152;11.584;2023-06-10T14:24:35;2.20;;;1.67;;
4452;SDS011;2239;48.152;11.584;2023-06-10T14:27:01;3.70;;;1.97;;
4452;SDS011;2239;48.152;11.584;2023-06-10T14:29:26;3.70;;;2.10;;
4452;SDS011;2239;48.152;11.584;2023-06-10T14:31:54;2.90;;;1.90;;
4452;SDS011;2239;48.152;11.584;2023-06-10T14:34:19;2.50;;;1.67;;
4452;SDS011;2239;48.152;11.584;2023-06-10T14:36:45;2.87;;;2.00;;
4452;SDS011;2239;48.152;11.584;2023-06-10T14:39:11;2.27;;;1.50;;
4452;SDS011;2239;48.152;11.584;2023-06-10T14:41:36;3.03;;;1.80;;
4452;SDS011;2239;48.152;11.584;2023-06-10T14:44:02;1.63;;;1.30;;
4452;SDS011;2239;48.152;11.584;2023-06-10T14:46:27;3.50;;;1.90;;
4452;SDS011;2239;48.152;11.584;2023-06-10T14:48:53;2.53;;;1.83;;
4452;SDS011;2239;48.152;11.584;2023-06-10T14:51:18;2.70;;;1.83;;
4452;SDS011;2239;48.152;11.584;2023-06-10T14:53:45;3.47;;;1.80;;
4452;SDS011;2239;48.152;11.584;2023-06-10T14:56:11;5.73;;;2.20;;
4452;SDS011;2239;48.152;11.584;2023-06-10T14:58:37;1.73;;;1.40;;
4452;SDS011;2239;48.152;11.584;2023-06-10T15:01:03;2.93;;;1.83;;
4452;SDS011;2239;48.152;11.584;2023-06-10T15:03:29;1.60;;;1.20;;
4452;SDS011;2239;48.152;11.584;2023-06-10T15:05:54;2.70;;;2.07;;
4452;SDS011;2239;48.152;11.584;2023-06-10T15:08:20;3.93;;;1.70;;
4452;SDS011;2239;48.152;11.584;2023-06-10T15:10:46;3.90;;;2.10;;
4452;SDS011;2239;48.152;11.584;2023-06-10T15:13:13;2.27;;;1.67;;
4452;SDS011;2239;48.152;11.584;2023-06-10T15:15:39;3.10;;;1.87;;
4452;SDS011;2239;48.152;11.584;2023-06-10T15:18:04;3.43;;;1.97;;
4452;SDS011;2239;48.152;11.584;2023-06-10T15:20:31;3.90;;;2.40;;
4452;SDS011;2239;48.152;11.584;2023-06-10T15:22:57;5.33;;;2.30;;
4452;SDS011;2239;48.152;11.584;2023-06-10T15:25:22;4.97;;;2.00;;
4452;SDS011;2239;48.152;11.584;2023-06-10T15:27:48;4.80;;;2.43;;